createdAt,value
2022-07-30T00:00:25.002Z,2.90
2022-07-30T00:02:52.605Z,3.13
2022-07-30T00:05:19.452Z,3.57
2022-07-30T00:07:46.276Z,3.33
2022-07-30T00:10:13.312Z,2.87
2022-07-30T00:12:40.222Z,3.60
2022-07-30T00:15:08.208Z,3.20
2022-07-30T00:17:35.115Z,2.90
2022-07-30T00:20:02.963Z,2.80
2022-07-30T00:22:31.685Z,2.87
2022-07-30T00:24:58.954Z,3.17
2022-07-30T00:27:26.390Z,3.30
2022-07-30T00:29:53.234Z,3.40
2022-07-30T00:32:20.076Z,3.50
2022-07-30T00:34:47.030Z,3.40
2022-07-30T00:37:13.857Z,3.13
2022-07-30T00:39:40.734Z,2.83
2022-07-30T00:42:07.597Z,3.07
2022-07-30T00:44:34.493Z,3.30
2022-07-30T00:47:01.971Z,3.20
2022-07-30T00:49:29.098Z,3.27
2022-07-30T00:51:56.226Z,3.10
2022-07-30T00:54:23.178Z,3.30
2022-07-30T00:56:50.613Z,3.80
2022-07-30T00:59:17.466Z,3.37
2022-07-30T01:01:44.525Z,3.17
2022-07-30T01:04:11.844Z,3.20
2022-07-30T01:06:40.242Z,3.00
2022-07-30T01:09:08.200Z,3.10
2022-07-30T01:11:40.357Z,2.93
2022-07-30T01:14:09.541Z,3.10
2022-07-30T01:16:38.770Z,2.60
2022-07-30T01:19:32.790Z,3.27
2022-07-30T01:22:24.703Z,2.90
2022-07-30T01:25:12.053Z,3.03
2022-07-30T01:27:51.218Z,2.93
2022-07-30T01:30:22.992Z,3.13
2022-07-30T01:32:51.469Z,2.80
2022-07-30T01:35:20.780Z,3.13
2022-07-30T01:37:49.500Z,2.90
2022-07-30T01:40:16.737Z,2.90
2022-07-30T01:42:44.956Z,2.53
2022-07-30T01:45:13.882Z,2.97
2022-07-30T01:47:42.652Z,2.90
2022-07-30T01:50:15.852Z,2.77
2022-07-30T01:52:45.861Z,3.03
2022-07-30T01:55:20.725Z,2.60
2022-07-30T01:57:49.250Z,3.37
2022-07-30T02:00:17.463Z,2.80
2022-07-30T02:02:45.811Z,3.40
2022-07-30T02:05:12.958Z,3.37
2022-07-30T02:08:11.922Z,2.90
2022-07-30T02:10:50.140Z,3.13
2022-07-30T02:13:23.398Z,3.33
2022-07-30T02:16:05.730Z,3.00
2022-07-30T02:19:04.370Z,3.30
2022-07-30T02:21:39.085Z,2.90
2022-07-30T02:24:13.768Z,3.20
2022-07-30T02:26:43.312Z,3.10
2022-07-30T02:29:11.789Z,3.23
2022-07-30T02:31:40.803Z,2.83
2022-07-30T02:34:09.937Z,3.00
2022-07-30T02:36:39.301Z,3.20
2022-07-30T02:39:06.582Z,3.37
2022-07-30T02:41:36.534Z,3.50
2022-07-30T02:44:04.564Z,3.13
2022-07-30T02:46:32.582Z,2.93
2022-07-30T02:49:00.085Z,3.10
2022-07-30T02:51:28.067Z,2.73
2022-07-30T02:53:56.747Z,3.60
2022-07-30T02:56:24.697Z,3.50
2022-07-30T02:58:53.273Z,3.90
2022-07-30T03:01:23.206Z,3.67
2022-07-30T03:03:51.606Z,3.90
2022-07-30T03:06:19.943Z,3.70
2022-07-30T03:08:47.368Z,3.37
2022-07-30T03:11:18.438Z,3.30
2022-07-30T03:13:45.409Z,4.20
2022-07-30T03:16:13.874Z,3.40
2022-07-30T03:18:43.012Z,3.43
2022-07-30T03:21:11.968Z,3.50
2022-07-30T03:23:40.586Z,4.33
2022-07-30T03:26:09.330Z,3.80
2022-07-30T03:28:40.221Z,3.90
2022-07-30T03:31:10.354Z,4.10
2022-07-30T03:33:39.892Z,3.70
2022-07-30T03:36:08.693Z,3.77
2022-07-30T03:38:41.373Z,4.00
2022-07-30T03:41:08.834Z,4.37
2022-07-30T03:43:36.233Z,4.17
2022-07-30T03:46:09.988Z,4.10
2022-07-30T03:48:38.511Z,4.00
2022-07-30T03:51:10.157Z,3.90
2022-07-30T03:53:37.834Z,4.13
2022-07-30T03:56:04.989Z,4.13
2022-07-30T03:58:35.899Z,4.50
2022-07-30T04:01:03.378Z,3.80
2022-07-30T04:03:34.630Z,3.97
2022-07-30T04:06:01.765Z,4.33
2022-07-30T04:08:29.067Z,3.77
2022-07-30T04:10:55.962Z,4.67
2022-07-30T04:13:22.796Z,4.20
2022-07-30T04:16:40.051Z,4.23
2022-07-30T04:19:12.964Z,4.20
2022-07-30T04:21:41.622Z,4.27
2022-07-30T04:24:10.721Z,4.37
2022-07-30T04:26:38.521Z,4.83
2022-07-30T04:29:14.353Z,4.80
2022-07-30T04:31:46.083Z,4.83
2022-07-30T04:34:15.153Z,4.80
2022-07-30T04:36:43.614Z,4.80
2022-07-30T04:39:11.364Z,5.00
2022-07-30T04:41:49.411Z,4.70
2022-07-30T04:44:19.334Z,4.80
2022-07-30T04:46:47.582Z,4.83
2022-07-30T04:49:18.014Z,4.80
2022-07-30T04:51:46.801Z,4.90
2022-07-30T04:54:16.043Z,4.37
2022-07-30T04:57:01.076Z,4.60
2022-07-30T04:59:28.109Z,4.93
2022-07-30T05:01:57.865Z,4.60
2022-07-30T05:04:26.548Z,4.07
2022-07-30T05:06:54.823Z,4.50
2022-07-30T05:09:22.697Z,4.73
2022-07-30T05:11:54.441Z,4.20
2022-07-30T05:14:23.017Z,3.80
2022-07-30T05:16:51.141Z,3.77
2022-07-30T05:19:20.117Z,4.03
2022-07-30T05:21:47.393Z,4.13
2022-07-30T05:24:15.007Z,3.77
2022-07-30T05:26:41.948Z,3.80
2022-07-30T05:29:08.902Z,3.93
2022-07-30T05:31:35.935Z,3.70
2022-07-30T05:34:05.389Z,4.13
2022-07-30T05:36:32.492Z,3.83
2022-07-30T05:39:00.269Z,3.63
2022-07-30T05:41:32.037Z,3.83
2022-07-30T05:44:01.034Z,4.50
2022-07-30T05:46:28.962Z,3.80
2022-07-30T05:48:55.908Z,3.97
2022-07-30T05:51:22.892Z,3.63
2022-07-30T05:53:50.214Z,3.67
2022-07-30T05:56:17.370Z,4.07
2022-07-30T05:58:44.351Z,3.47
2022-07-30T06:01:11.988Z,3.80
2022-07-30T06:03:39.151Z,3.60
2022-07-30T06:06:07.994Z,3.63
2022-07-30T06:08:35.472Z,3.90
2022-07-30T06:11:03.088Z,3.70
2022-07-30T06:13:30.056Z,3.53
2022-07-30T06:15:57.066Z,3.70
2022-07-30T06:18:24.028Z,4.27
2022-07-30T06:20:54.768Z,3.67
2022-07-30T06:23:22.052Z,4.00
2022-07-30T06:25:49.765Z,4.30
2022-07-30T06:28:37.025Z,4.40
2022-07-30T06:31:05.648Z,3.97
2022-07-30T06:33:32.674Z,4.03
2022-07-30T06:35:59.541Z,4.17
2022-07-30T06:38:26.448Z,3.63
2022-07-30T06:40:53.410Z,4.00
2022-07-30T06:43:21.201Z,3.67
2022-07-30T06:45:48.131Z,3.87
2022-07-30T06:48:15.152Z,4.17
2022-07-30T06:50:42.117Z,3.83
2022-07-30T06:53:09.019Z,4.50
2022-07-30T06:55:35.924Z,4.37
2022-07-30T06:58:02.840Z,3.40
2022-07-30T07:00:29.895Z,4.40
2022-07-30T07:02:56.766Z,3.60
2022-07-30T07:05:23.681Z,4.00
2022-07-30T07:07:58.724Z,4.13
2022-07-30T07:10:27.305Z,4.20
2022-07-30T07:12:55.067Z,4.50
2022-07-30T07:15:36.187Z,4.20
2022-07-30T07:18:06.437Z,3.83
2022-07-30T07:20:35.050Z,3.70
2022-07-30T07:23:06.627Z,3.87
2022-07-30T07:25:36.525Z,3.80
2022-07-30T07:28:12.817Z,4.50
2022-07-30T07:30:42.032Z,3.70
2022-07-30T07:33:09.517Z,5.23
2022-07-30T07:35:41.186Z,3.60
2022-07-30T07:38:18.409Z,3.70
2022-07-30T07:40:45.963Z,4.20
2022-07-30T07:43:13.431Z,3.90
2022-07-30T07:45:42.180Z,3.73
2022-07-30T07:48:09.461Z,3.53
2022-07-30T07:50:36.343Z,3.77
2022-07-30T07:53:03.617Z,3.40
2022-07-30T07:55:31.035Z,3.37
2022-07-30T07:57:59.911Z,3.90
2022-07-30T08:00:27.000Z,3.80
2022-07-30T08:02:54.752Z,3.80
2022-07-30T08:05:21.711Z,4.33
2022-07-30T08:07:48.634Z,4.13
2022-07-30T08:10:16.172Z,4.03
2022-07-30T08:12:43.550Z,4.17
2022-07-30T08:15:10.836Z,3.73
2022-07-30T08:17:46.290Z,4.20
2022-07-30T08:20:15.732Z,4.03
2022-07-30T08:22:42.924Z,4.50
2022-07-30T08:25:10.172Z,4.40
2022-07-30T08:27:37.007Z,3.90
2022-07-30T08:30:09.224Z,4.37
2022-07-30T08:32:36.759Z,4.73
2022-07-30T08:35:05.236Z,4.37
2022-07-30T08:37:32.112Z,4.40
2022-07-30T08:39:59.118Z,4.53
2022-07-30T08:42:27.686Z,4.10
2022-07-30T08:44:55.398Z,4.17
2022-07-30T08:47:33.288Z,4.87
2022-07-30T08:50:04.537Z,3.97
2022-07-30T08:52:33.231Z,4.80
2022-07-30T08:55:01.019Z,5.00
2022-07-30T08:57:34.185Z,4.87
2022-07-30T09:00:02.339Z,3.67
2022-07-30T09:02:31.873Z,4.17
2022-07-30T09:04:59.347Z,11.93
2022-07-30T09:07:26.559Z,4.50
2022-07-30T09:09:53.391Z,6.13
2022-07-30T09:12:39.876Z,10.57
2022-07-30T09:15:15.565Z,4.73
2022-07-30T09:18:00.757Z,4.30
2022-07-30T09:20:36.188Z,4.03
2022-07-30T09:23:06.293Z,5.10
2022-07-30T09:25:44.137Z,6.57
2022-07-30T09:28:16.080Z,4.17
2022-07-30T09:30:54.043Z,4.27
2022-07-30T09:33:38.999Z,3.73
2022-07-30T09:36:12.552Z,3.87
2022-07-30T09:38:53.060Z,3.87
2022-07-30T09:41:39.369Z,3.90
2022-07-30T09:44:07.541Z,3.83
2022-07-30T09:46:50.947Z,3.93
2022-07-30T09:49:26.561Z,4.00
2022-07-30T09:52:06.804Z,3.77
2022-07-30T09:54:51.384Z,3.60
2022-07-30T09:57:26.254Z,3.85
2022-07-30T09:59:56.847Z,3.00
2022-07-30T10:02:33.990Z,3.17
2022-07-30T10:05:16.512Z,3.35
2022-07-30T10:07:59.063Z,3.53
2022-07-30T10:10:31.295Z,3.50
2022-07-30T10:13:04.613Z,3.08
2022-07-30T10:15:34.999Z,3.60
2022-07-30T10:18:06.379Z,3.85
2022-07-30T10:20:35.170Z,3.67
2022-07-30T10:23:07.975Z,3.58
2022-07-30T10:25:37.016Z,2.60
2022-07-30T10:28:17.949Z,2.92
2022-07-30T10:30:45.349Z,2.78
2022-07-30T10:33:34.912Z,2.72
2022-07-30T10:35:59.833Z,2.67
2022-07-30T10:38:34.450Z,2.53
2022-07-30T10:41:42.556Z,2.88
2022-07-30T10:44:22.817Z,2.30
2022-07-30T10:47:10.539Z,2.58
2022-07-30T10:49:41.305Z,2.45
2022-07-30T10:52:09.398Z,2.42
2022-07-30T10:54:47.632Z,2.75
2022-07-30T10:57:22.945Z,3.17
2022-07-30T11:00:04.118Z,2.10
2022-07-30T11:02:35.255Z,2.70
2022-07-30T11:05:18.380Z,2.20
2022-07-30T11:07:48.688Z,2.20
2022-07-30T11:10:39.476Z,2.22
2022-07-30T11:13:09.665Z,2.85
2022-07-30T11:15:57.234Z,2.65
2022-07-30T11:18:26.664Z,3.40
2022-07-30T11:21:21.411Z,3.70
2022-07-30T11:23:49.613Z,4.00
2022-07-30T11:26:41.711Z,4.30
2022-07-30T11:29:50.593Z,3.93
2022-07-30T11:32:32.009Z,4.43
2022-07-30T11:35:34.723Z,3.63
2022-07-30T11:38:09.406Z,3.30
2022-07-30T11:40:37.155Z,3.80
2022-07-30T11:43:34.931Z,3.90
2022-07-30T11:46:28.835Z,4.23
2022-07-30T11:49:01.355Z,4.90
2022-07-30T11:51:29.550Z,3.97
2022-07-30T11:54:05.019Z,4.20
2022-07-30T11:56:32.239Z,3.67
2022-07-30T11:59:07.737Z,3.73
2022-07-30T12:01:35.749Z,3.20
2022-07-30T12:04:07.087Z,3.27
2022-07-30T12:06:36.409Z,3.30
2022-07-30T12:09:03.511Z,3.20
2022-07-30T12:11:35.290Z,2.87
2022-07-30T12:14:03.479Z,2.50
2022-07-30T12:16:31.993Z,2.40
2022-07-30T12:19:06.470Z,2.07
2022-07-30T12:21:34.090Z,2.10
2022-07-30T12:24:09.875Z,2.17
2022-07-30T12:26:36.748Z,2.27
2022-07-30T12:29:13.922Z,2.00
2022-07-30T12:31:41.854Z,1.93
2022-07-30T12:34:27.181Z,2.03
2022-07-30T12:36:54.953Z,1.87
2022-07-30T12:39:26.962Z,2.07
2022-07-30T12:41:58.436Z,2.00
2022-07-30T12:44:44.901Z,1.90
2022-07-30T12:47:38.617Z,2.10
2022-07-30T12:50:17.920Z,2.03
2022-07-30T12:52:51.639Z,1.97
2022-07-30T12:55:29.112Z,1.90
2022-07-30T12:58:09.197Z,2.10
2022-07-30T13:00:51.051Z,1.70
2022-07-30T13:03:27.743Z,1.60
2022-07-30T13:05:56.939Z,1.80
2022-07-30T13:08:55.691Z,2.10
2022-07-30T13:11:26.223Z,1.60
2022-07-30T13:13:53.969Z,1.70
2022-07-30T13:16:21.858Z,1.60
2022-07-30T13:18:48.925Z,1.70
2022-07-30T13:21:16.544Z,2.60
2022-07-30T13:23:43.433Z,2.40
2022-07-30T13:26:11.113Z,1.90
2022-07-30T13:28:38.544Z,1.48
2022-07-30T13:31:07.468Z,1.58
2022-07-30T13:33:35.988Z,1.60
2022-07-30T13:36:03.199Z,1.35
2022-07-30T13:38:30.177Z,1.30
2022-07-30T13:41:02.212Z,1.48
2022-07-30T13:43:29.641Z,1.15
2022-07-30T13:46:00.988Z,1.50
2022-07-30T13:48:27.822Z,1.30
2022-07-30T13:50:54.771Z,1.52
2022-07-30T13:53:21.864Z,1.40
2022-07-30T13:55:48.959Z,1.40
2022-07-30T13:58:15.804Z,1.50
2022-07-30T14:00:45.074Z,1.30
2022-07-30T14:03:12.472Z,1.50
2022-07-30T14:05:42.122Z,1.60
2022-07-30T14:08:11.063Z,2.10
2022-07-30T14:10:39.725Z,1.30
2022-07-30T14:13:09.572Z,1.52
2022-07-30T14:15:36.869Z,1.63
2022-07-30T14:18:05.894Z,1.40
2022-07-30T14:20:32.812Z,1.60
2022-07-30T14:22:59.810Z,1.60
2022-07-30T14:25:26.856Z,1.45
2022-07-30T14:27:53.860Z,1.60
2022-07-30T14:30:21.245Z,1.80
2022-07-30T14:32:48.240Z,1.88
2022-07-30T14:35:15.127Z,1.30
2022-07-30T14:37:42.360Z,1.70
2022-07-30T14:40:12.170Z,1.80
2022-07-30T14:42:41.749Z,1.70
2022-07-30T14:45:10.232Z,1.85
2022-07-30T14:47:37.270Z,1.63
2022-07-30T14:50:04.845Z,1.50
2022-07-30T14:52:34.908Z,1.77
2022-07-30T14:55:03.726Z,1.70
2022-07-30T14:57:30.939Z,1.48
2022-07-30T14:59:57.786Z,1.80
2022-07-30T15:02:24.733Z,1.70
2022-07-30T15:04:51.768Z,1.77
2022-07-30T15:07:19.070Z,1.85
2022-07-30T15:09:46.000Z,1.83
2022-07-30T15:12:23.444Z,1.75
2022-07-30T15:14:53.925Z,1.70
2022-07-30T15:17:20.925Z,2.22
2022-07-30T15:19:50.266Z,3.05
2022-07-30T15:22:19.588Z,2.13
2022-07-30T15:24:46.695Z,1.88
2022-07-30T15:27:13.640Z,1.50
2022-07-30T15:29:40.850Z,1.73
2022-07-30T15:32:07.863Z,1.67
2022-07-30T15:34:34.937Z,1.73
2022-07-30T15:37:02.982Z,2.00
2022-07-30T15:39:32.290Z,2.20
2022-07-30T15:42:01.099Z,3.40
2022-07-30T15:44:28.340Z,4.20
2022-07-30T15:46:55.377Z,3.20
2022-07-30T15:49:22.486Z,3.65
2022-07-30T15:51:50.404Z,3.97
2022-07-30T15:54:22.865Z,3.03
2022-07-30T15:56:51.509Z,2.07
2022-07-30T15:59:18.685Z,1.73
2022-07-30T16:01:45.745Z,1.63
2022-07-30T16:04:18.943Z,1.57
2022-07-30T16:06:48.513Z,1.80
2022-07-30T16:09:16.480Z,1.63
2022-07-30T16:11:43.592Z,2.07
2022-07-30T16:14:10.973Z,1.90
2022-07-30T16:16:38.161Z,1.87
2022-07-30T16:19:05.056Z,1.70
2022-07-30T16:21:31.909Z,1.90
2022-07-30T16:23:58.956Z,1.60
2022-07-30T16:26:25.962Z,1.80
2022-07-30T16:28:52.891Z,1.60
2022-07-30T16:31:19.901Z,1.77
2022-07-30T16:33:47.264Z,1.63
2022-07-30T16:36:14.344Z,1.80
2022-07-30T16:38:41.329Z,1.87
2022-07-30T16:41:13.457Z,1.90
2022-07-30T16:43:41.036Z,2.00
2022-07-30T16:46:08.262Z,2.00
2022-07-30T16:48:35.107Z,1.80
2022-07-30T16:51:02.189Z,1.90
2022-07-30T16:53:29.376Z,2.00
2022-07-30T16:55:58.901Z,2.00
2022-07-30T16:58:30.910Z,1.80
2022-07-30T17:00:58.399Z,1.83
2022-07-30T17:03:25.702Z,2.07
2022-07-30T17:05:53.446Z,1.80
2022-07-30T17:08:24.981Z,1.90
2022-07-30T17:10:53.583Z,2.30
2022-07-30T17:13:21.110Z,1.80
2022-07-30T17:15:48.655Z,1.90
2022-07-30T17:18:16.442Z,2.33
2022-07-30T17:20:44.371Z,2.10
2022-07-30T17:23:11.681Z,1.90
2022-07-30T17:25:38.557Z,2.03
2022-07-30T17:28:05.558Z,2.50
2022-07-30T17:30:32.718Z,2.10
2022-07-30T17:32:59.560Z,2.20
2022-07-30T17:35:26.550Z,2.03
2022-07-30T17:37:53.795Z,2.13
2022-07-30T17:40:29.079Z,2.07
2022-07-30T17:43:03.531Z,2.10
2022-07-30T17:45:32.378Z,1.93
2022-07-30T17:48:01.338Z,2.03
2022-07-30T17:50:28.650Z,1.97
2022-07-30T17:52:55.523Z,2.10
2022-07-30T17:55:22.349Z,2.00
2022-07-30T17:57:49.236Z,2.33
2022-07-30T18:00:16.785Z,2.00
2022-07-30T18:02:43.717Z,2.20
2022-07-30T18:05:10.983Z,2.50
2022-07-30T18:07:37.811Z,2.63
2022-07-30T18:10:05.318Z,2.57
2022-07-30T18:12:32.364Z,2.60
2022-07-30T18:14:59.337Z,2.30
2022-07-30T18:17:26.601Z,2.20
2022-07-30T18:19:53.793Z,2.17
2022-07-30T18:22:28.222Z,2.30
2022-07-30T18:24:57.483Z,2.10
2022-07-30T18:27:24.368Z,2.23
2022-07-30T18:29:51.241Z,2.30
2022-07-30T18:32:18.155Z,2.30
2022-07-30T18:34:45.051Z,2.20
2022-07-30T18:37:11.880Z,2.57
2022-07-30T18:39:38.700Z,2.27
2022-07-30T18:42:06.444Z,2.53
2022-07-30T18:44:33.789Z,2.50
2022-07-30T18:47:01.136Z,2.60
2022-07-30T18:49:37.029Z,2.20
2022-07-30T18:52:07.034Z,2.37
2022-07-30T18:54:35.043Z,2.50
2022-07-30T18:57:02.016Z,2.60
2022-07-30T18:59:29.741Z,2.73
2022-07-30T19:01:56.586Z,2.87
2022-07-30T19:04:23.558Z,2.53
2022-07-30T19:06:50.463Z,2.77
2022-07-30T19:09:18.216Z,2.80
2022-07-30T19:11:48.278Z,3.47
2022-07-30T19:14:15.995Z,2.67
2022-07-30T19:16:44.165Z,2.87
2022-07-30T19:19:14.690Z,2.90
2022-07-30T19:21:41.954Z,2.80
2022-07-30T19:24:10.056Z,2.93
2022-07-30T19:26:39.263Z,3.00
2022-07-30T19:29:07.881Z,3.20
2022-07-30T19:31:35.397Z,3.03
2022-07-30T19:34:02.303Z,2.87
2022-07-30T19:36:30.183Z,2.83
2022-07-30T19:39:03.244Z,3.20
2022-07-30T19:41:40.288Z,3.77
2022-07-30T19:44:09.333Z,3.30
2022-07-30T19:46:36.982Z,3.07
2022-07-30T19:49:06.757Z,3.30
2022-07-30T19:52:10.708Z,3.10
2022-07-30T19:54:20.781Z,3.20
2022-07-30T19:56:48.672Z,3.40
2022-07-30T19:59:15.721Z,3.00
2022-07-30T20:01:45.337Z,2.73
2022-07-30T20:04:23.627Z,3.13
2022-07-30T20:06:52.305Z,3.07
2022-07-30T20:09:19.163Z,3.10
2022-07-30T20:11:46.137Z,3.03
2022-07-30T20:14:16.256Z,3.70
2022-07-30T20:16:44.115Z,3.20
2022-07-30T20:19:15.581Z,3.40
2022-07-30T20:21:56.906Z,3.60
2022-07-30T20:24:24.889Z,3.83
2022-07-30T20:26:52.461Z,3.67
2022-07-30T20:29:20.831Z,3.80
2022-07-30T20:31:49.667Z,3.83
2022-07-30T20:34:20.610Z,3.50
2022-07-30T20:36:51.106Z,3.87
2022-07-30T20:39:19.887Z,3.30
2022-07-30T20:41:47.014Z,3.43
2022-07-30T20:44:23.364Z,3.50
2022-07-30T20:46:52.633Z,3.60
2022-07-30T20:49:24.206Z,3.50
2022-07-30T20:52:01.344Z,3.83
2022-07-30T20:54:30.166Z,3.80
2022-07-30T20:56:57.919Z,3.93
2022-07-30T20:59:26.947Z,3.30
2022-07-30T21:01:55.708Z,3.50
2022-07-30T21:04:23.998Z,4.10
2022-07-30T21:06:53.301Z,3.87
2022-07-30T21:09:20.576Z,4.00
2022-07-30T21:11:50.508Z,3.50
2022-07-30T21:14:20.081Z,3.90
2022-07-30T21:16:47.646Z,3.90
2022-07-30T21:19:16.976Z,4.33
2022-07-30T21:21:48.249Z,4.13
2022-07-30T21:24:18.928Z,3.90
2022-07-30T21:26:49.345Z,4.20
2022-07-30T21:29:18.288Z,4.63
2022-07-30T21:31:59.093Z,4.77
2022-07-30T21:34:35.182Z,4.10
2022-07-30T21:37:07.538Z,4.47
2022-07-30T21:39:39.860Z,5.10
2022-07-30T21:42:10.706Z,4.23
2022-07-30T21:44:38.460Z,4.33
2022-07-30T21:47:10.114Z,4.90
2022-07-30T21:49:38.562Z,4.20
2022-07-30T21:52:08.359Z,4.40
2022-07-30T21:54:45.127Z,4.47
2022-07-30T21:57:12.710Z,4.60
2022-07-30T21:59:40.651Z,5.00
2022-07-30T22:02:15.859Z,4.90
2022-07-30T22:04:47.626Z,4.70
2022-07-30T22:07:17.442Z,4.93
2022-07-30T22:09:44.270Z,5.03
2022-07-30T22:12:13.010Z,5.30
2022-07-30T22:14:47.004Z,5.40
2022-07-30T22:17:23.832Z,4.77
2022-07-30T22:20:04.708Z,4.67
2022-07-30T22:22:37.562Z,5.40
2022-07-30T22:25:06.771Z,5.83
2022-07-30T22:27:39.982Z,5.27
2022-07-30T22:30:24.177Z,5.30
2022-07-30T22:33:09.001Z,5.13
2022-07-30T22:35:36.665Z,4.97
2022-07-30T22:38:06.828Z,5.10
2022-07-30T22:40:36.044Z,5.83
2022-07-30T22:43:12.449Z,5.23
2022-07-30T22:45:47.313Z,5.60
2022-07-30T22:48:17.122Z,5.33
2022-07-30T22:50:44.042Z,5.30
2022-07-30T22:54:02.816Z,5.10
2022-07-30T22:55:58.735Z,5.33
2022-07-30T23:01:13.793Z,5.33
2022-07-30T23:03:41.397Z,5.30
2022-07-30T23:06:13.945Z,4.97
2022-07-30T23:08:41.519Z,4.90
2022-07-30T23:11:09.195Z,5.30
2022-07-30T23:12:30.812Z,5.30
2022-07-30T23:13:38.525Z,4.97
2022-07-30T23:16:06.692Z,4.97
2022-07-30T23:18:35.146Z,5.00
2022-07-30T23:21:02.779Z,4.80
2022-07-30T23:23:34.108Z,5.20
2022-07-30T23:26:04.610Z,4.80
2022-07-30T23:28:31.579Z,5.20
2022-07-30T23:30:59.084Z,4.77
2022-07-30T23:33:26.093Z,5.10
2022-07-30T23:35:52.949Z,5.27
2022-07-30T23:38:19.821Z,5.27
2022-07-30T23:40:47.283Z,5.10
2022-07-30T23:43:14.341Z,5.03
2022-07-30T23:45:41.681Z,5.00
2022-07-30T23:48:08.540Z,5.27
2022-07-30T23:50:35.609Z,5.20
2022-07-30T23:53:04.946Z,5.37
2022-07-30T23:55:32.507Z,4.83
2022-07-30T23:58:00.153Z,5.53
